createdAt,value
2023-02-14T00:02:06.863Z,43.25
2023-02-14T00:04:38.339Z,42.25
2023-02-14T00:07:08.594Z,39.13
2023-02-14T00:09:36.743Z,40.20
2023-02-14T00:12:06.445Z,40.67
2023-02-14T00:14:52.262Z,42.35
2023-02-14T00:17:21.654Z,37.97
2023-02-14T00:19:50.504Z,36.00
2023-02-14T00:22:18.558Z,38.22
2023-02-14T00:24:47.446Z,40.28
2023-02-14T00:27:16.034Z,37.47
2023-02-14T00:29:44.079Z,39.33
2023-02-14T00:32:12.109Z,35.15
2023-02-14T00:34:43.245Z,38.30
2023-02-14T00:37:11.225Z,42.33
2023-02-14T00:39:39.119Z,40.33
2023-02-14T00:42:07.138Z,39.70
2023-02-14T00:44:37.350Z,35.13
2023-02-14T00:47:05.465Z,42.17
2023-02-14T00:49:33.914Z,39.65
2023-02-14T00:52:03.232Z,38.40
2023-02-14T00:54:39.406Z,31.77
2023-02-14T00:57:10.485Z,37.70
2023-02-14T00:59:45.983Z,36.22
2023-02-14T01:02:14.633Z,41.50
2023-02-14T01:04:45.270Z,44.60
2023-02-14T01:07:15.458Z,42.85
2023-02-14T01:09:44.235Z,40.08
2023-02-14T01:12:12.492Z,37.38
2023-02-14T01:14:40.860Z,36.88
2023-02-14T01:17:12.651Z,33.95
2023-02-14T01:19:45.340Z,41.75
2023-02-14T01:22:15.450Z,35.35
2023-02-14T01:24:43.674Z,36.75
2023-02-14T01:27:11.732Z,36.28
2023-02-14T01:29:39.866Z,28.77
2023-02-14T01:32:08.023Z,36.38
2023-02-14T01:34:36.287Z,35.90
2023-02-14T01:37:04.341Z,32.75
2023-02-14T01:39:33.799Z,34.35
2023-02-14T01:42:01.810Z,37.10
2023-02-14T01:44:58.078Z,37.38
2023-02-14T01:47:28.295Z,34.67
2023-02-14T01:50:02.063Z,33.85
2023-02-14T01:52:35.413Z,32.65
2023-02-14T01:55:13.387Z,35.40
2023-02-14T01:57:48.091Z,38.20
2023-02-14T02:00:35.552Z,40.08
2023-02-14T02:03:06.084Z,35.05
2023-02-14T02:05:34.206Z,34.97
2023-02-14T02:08:02.724Z,36.95
2023-02-14T02:10:32.190Z,38.97
2023-02-14T02:13:05.889Z,43.05
2023-02-14T02:15:39.339Z,38.85
2023-02-14T02:18:16.690Z,40.17
2023-02-14T02:21:18.861Z,29.45
2023-02-14T02:24:14.965Z,37.97
2023-02-14T02:27:08.187Z,34.60
2023-02-14T02:30:16.521Z,38.10
2023-02-14T02:33:15.420Z,33.75
2023-02-14T02:36:08.787Z,34.55
2023-02-14T02:39:09.321Z,39.38
2023-02-14T02:41:58.376Z,33.35
2023-02-14T02:44:37.652Z,35.00
2023-02-14T02:47:13.140Z,44.38
2023-02-14T02:50:09.920Z,40.55
2023-02-14T02:53:01.495Z,38.95
2023-02-14T02:55:57.125Z,28.45
2023-02-14T02:58:27.580Z,38.53
2023-02-14T03:01:03.477Z,36.30
2023-02-14T03:03:53.361Z,41.17
2023-02-14T03:06:21.387Z,38.40
2023-02-14T03:08:50.829Z,40.67
2023-02-14T03:11:18.896Z,39.55
2023-02-14T03:14:02.060Z,40.85
2023-02-14T03:16:50.325Z,40.28
2023-02-14T03:20:05.711Z,41.08
2023-02-14T03:22:44.780Z,33.35
2023-02-14T03:25:25.409Z,40.92
2023-02-14T03:28:00.033Z,48.20
2023-02-14T03:30:42.218Z,43.30
2023-02-14T03:33:18.506Z,38.78
2023-02-14T03:35:53.994Z,43.17
2023-02-14T03:38:26.495Z,43.85
2023-02-14T03:43:31.866Z,37.80
2023-02-14T03:46:08.429Z,42.47
2023-02-14T03:48:39.554Z,47.88
2023-02-14T03:51:11.735Z,47.13
2023-02-14T03:53:48.677Z,52.75
2023-02-14T03:56:31.046Z,44.40
2023-02-14T03:59:06.437Z,42.88
2023-02-14T04:01:40.396Z,47.60
2023-02-14T04:04:10.018Z,59.55
2023-02-14T04:06:38.478Z,55.30
2023-02-14T04:09:08.594Z,52.60
2023-02-14T04:11:40.619Z,44.45
2023-02-14T04:14:09.082Z,49.22
2023-02-14T04:16:58.808Z,59.67
2023-02-14T04:19:26.326Z,47.40
2023-02-14T04:21:55.059Z,45.65
2023-02-14T04:24:23.445Z,57.80
2023-02-14T04:27:12.337Z,51.08
2023-02-14T04:29:44.254Z,42.65
2023-02-14T04:32:14.947Z,54.80
2023-02-14T04:34:43.507Z,50.13
2023-02-14T04:37:11.798Z,50.38
2023-02-14T04:39:42.200Z,56.05
2023-02-14T04:42:12.190Z,49.75
2023-02-14T04:44:40.372Z,44.80
2023-02-14T04:47:13.898Z,51.05
2023-02-14T04:49:44.080Z,50.65
2023-02-14T04:52:13.166Z,58.72
2023-02-14T04:54:46.225Z,55.88
2023-02-14T04:57:32.584Z,56.08
2023-02-14T05:00:12.225Z,55.20
2023-02-14T05:02:57.614Z,53.72
2023-02-14T05:05:32.166Z,52.28
2023-02-14T05:08:19.970Z,50.65
2023-02-14T05:11:05.895Z,57.17
2023-02-14T05:13:36.138Z,54.40
2023-02-14T05:16:12.395Z,58.80
2023-02-14T05:18:47.164Z,49.33
2023-02-14T05:21:18.194Z,57.33
2023-02-14T05:24:08.679Z,52.95
2023-02-14T05:26:49.665Z,52.95
2023-02-14T05:29:35.105Z,50.20
2023-02-14T05:32:09.794Z,57.65
2023-02-14T05:34:59.679Z,62.83
2023-02-14T05:37:46.812Z,58.20
2023-02-14T05:40:19.231Z,55.80
2023-02-14T05:42:47.157Z,69.55
2023-02-14T05:45:16.712Z,57.08
2023-02-14T05:47:44.667Z,55.60
2023-02-14T05:50:13.111Z,63.75
2023-02-14T05:52:41.154Z,51.63
2023-02-14T05:55:09.831Z,63.88
2023-02-14T05:57:39.431Z,62.70
2023-02-14T06:00:09.079Z,62.38
2023-02-14T06:02:38.521Z,60.28
2023-02-14T06:05:07.140Z,53.42
2023-02-14T06:07:38.188Z,60.53
2023-02-14T06:10:09.740Z,62.92
2023-02-14T06:12:37.635Z,53.87
2023-02-14T06:15:06.080Z,54.72
2023-02-14T06:17:34.949Z,66.88
2023-02-14T06:20:05.096Z,59.50
2023-02-14T06:22:33.128Z,55.03
2023-02-14T06:25:01.147Z,55.00
2023-02-14T06:27:30.692Z,54.78
2023-02-14T06:29:59.298Z,49.25
2023-02-14T06:32:27.399Z,51.47
2023-02-14T06:34:55.373Z,52.38
2023-02-14T06:37:24.924Z,55.00
2023-02-14T06:39:52.885Z,54.10
2023-02-14T06:42:20.795Z,63.28
2023-02-14T06:44:48.722Z,54.08
2023-02-14T06:47:17.204Z,50.17
2023-02-14T06:49:45.177Z,63.05
2023-02-14T06:52:13.283Z,55.55
2023-02-14T06:54:42.591Z,51.15
2023-02-14T06:57:10.661Z,72.82
2023-02-14T06:59:38.649Z,68.75
2023-02-14T07:02:06.792Z,50.78
2023-02-14T07:04:34.846Z,60.42
2023-02-14T07:07:02.960Z,65.38
2023-02-14T07:09:30.899Z,53.47
2023-02-14T07:12:00.423Z,56.25
2023-02-14T07:14:28.408Z,49.78
2023-02-14T07:16:56.365Z,57.85
2023-02-14T07:19:24.448Z,48.17
2023-02-14T07:21:52.418Z,52.47
2023-02-14T07:24:20.420Z,50.72
2023-02-14T07:26:48.400Z,54.80
2023-02-14T07:29:17.961Z,47.05
2023-02-14T07:31:46.203Z,51.13
2023-02-14T07:34:14.496Z,44.90
2023-02-14T07:36:44.053Z,47.97
2023-02-14T07:39:12.223Z,47.03
2023-02-14T07:41:42.652Z,43.75
2023-02-14T07:44:10.643Z,47.08
2023-02-14T07:46:40.247Z,57.13
2023-02-14T07:49:08.270Z,45.05
2023-02-14T07:51:36.236Z,53.88
2023-02-14T07:54:04.625Z,45.03
2023-02-14T07:56:32.539Z,51.50
2023-02-14T07:59:00.646Z,56.25
2023-02-14T08:01:28.722Z,46.78
2023-02-14T08:03:58.125Z,48.53
2023-02-14T08:06:28.019Z,49.15
2023-02-14T08:08:56.063Z,46.38
2023-02-14T08:11:41.621Z,45.22
2023-02-14T08:14:10.664Z,48.15
2023-02-14T08:16:39.778Z,47.05
2023-02-14T08:19:09.309Z,47.05
2023-02-14T08:21:37.259Z,49.10
2023-02-14T08:24:05.725Z,49.03
2023-02-14T08:26:38.061Z,44.17
2023-02-14T08:29:06.081Z,43.20
2023-02-14T08:31:35.992Z,50.40
2023-02-14T08:34:04.579Z,37.85
2023-02-14T08:36:34.933Z,39.28
2023-02-14T08:39:06.311Z,43.42
2023-02-14T08:41:34.791Z,46.50
2023-02-14T08:44:03.146Z,47.60
2023-02-14T08:46:31.122Z,40.80
2023-02-14T08:48:59.225Z,45.90
2023-02-14T08:51:27.209Z,44.30
2023-02-14T08:53:56.735Z,45.60
2023-02-14T08:56:26.699Z,47.70
2023-02-14T08:58:54.985Z,43.40
2023-02-14T09:01:23.422Z,38.20
2023-02-14T09:03:51.400Z,40.17
2023-02-14T09:06:19.401Z,42.67
2023-02-14T09:08:47.693Z,47.97
2023-02-14T09:11:20.900Z,37.15
2023-02-14T09:13:50.026Z,38.92
2023-02-14T09:16:19.480Z,47.47
2023-02-14T09:18:49.205Z,38.97
2023-02-14T09:21:18.966Z,41.92
2023-02-14T09:23:46.992Z,41.28
2023-02-14T09:26:17.938Z,44.17
2023-02-14T09:28:46.220Z,39.90
2023-02-14T09:31:16.623Z,38.42
2023-02-14T09:34:02.702Z,44.13
2023-02-14T09:36:48.289Z,44.90
2023-02-14T09:39:19.286Z,47.00
2023-02-14T09:42:11.669Z,40.83
2023-02-14T09:44:42.747Z,36.10
2023-02-14T09:47:21.305Z,41.70
2023-02-14T09:49:51.224Z,39.78
2023-02-14T09:52:22.457Z,47.20
2023-02-14T09:54:57.457Z,40.35
2023-02-14T09:57:36.917Z,43.90
2023-02-14T10:00:14.588Z,49.53
2023-02-14T10:02:52.619Z,52.92
2023-02-14T10:05:24.097Z,42.13
2023-02-14T10:08:01.132Z,47.67
2023-02-14T10:10:33.017Z,50.80
2023-02-14T10:13:08.525Z,48.20
2023-02-14T10:15:41.271Z,47.92
2023-02-14T10:18:14.768Z,49.55
2023-02-14T10:20:45.907Z,49.42
2023-02-14T10:23:27.165Z,48.03
2023-02-14T10:26:03.358Z,45.72
2023-02-14T10:28:40.248Z,43.58
2023-02-14T10:31:19.488Z,47.15
2023-02-14T10:33:57.618Z,43.70
2023-02-14T10:36:46.400Z,52.40
2023-02-14T10:39:29.347Z,49.33
2023-02-14T10:42:06.363Z,46.40
2023-02-14T10:44:46.529Z,44.88
2023-02-14T10:47:30.985Z,50.72
2023-02-14T10:50:10.132Z,48.20
2023-02-14T10:52:42.252Z,42.95
2023-02-14T10:55:31.418Z,54.95
2023-02-14T10:58:04.196Z,50.92
2023-02-14T11:00:36.996Z,41.97
2023-02-14T11:03:09.632Z,44.03
2023-02-14T11:05:41.626Z,43.22
2023-02-14T11:08:17.167Z,50.45
2023-02-14T11:10:45.761Z,46.78
2023-02-14T11:13:32.761Z,41.92
2023-02-14T11:16:07.632Z,44.70
2023-02-14T11:18:39.772Z,43.50
2023-02-14T11:21:11.089Z,52.00
2023-02-14T11:23:42.590Z,55.58
2023-02-14T11:26:18.100Z,49.28
2023-02-14T11:28:52.530Z,50.15
2023-02-14T11:31:34.449Z,50.97
2023-02-14T11:34:05.114Z,55.67
2023-02-14T11:36:39.966Z,52.22
2023-02-14T11:39:23.630Z,59.15
2023-02-14T11:41:54.260Z,56.20
2023-02-14T11:44:25.301Z,54.97
2023-02-14T11:46:57.346Z,47.85
2023-02-14T11:49:29.695Z,57.05
2023-02-14T11:51:59.476Z,57.08
2023-02-14T11:54:33.536Z,53.60
2023-02-14T11:57:09.835Z,56.42
2023-02-14T11:59:54.999Z,58.90
2023-02-14T12:02:46.495Z,57.60
2023-02-14T12:05:22.781Z,55.00
2023-02-14T12:07:56.083Z,55.33
2023-02-14T12:10:35.259Z,62.13
2023-02-14T12:13:20.715Z,56.08
2023-02-14T12:15:54.032Z,57.67
2023-02-14T12:18:47.214Z,59.33
2023-02-14T12:21:40.103Z,57.58
2023-02-14T12:26:47.794Z,55.33
2023-02-14T12:29:22.126Z,62.47
2023-02-14T12:31:51.479Z,55.17
2023-02-14T12:34:21.614Z,69.43
2023-02-14T12:37:17.798Z,55.80
2023-02-14T12:40:04.214Z,60.58
2023-02-14T12:43:00.668Z,60.25
2023-02-14T12:45:48.839Z,58.63
2023-02-14T12:48:26.360Z,50.55
2023-02-14T12:51:01.880Z,62.33
2023-02-14T12:53:59.517Z,61.55
2023-02-14T12:56:41.999Z,58.58
2023-02-14T12:59:19.591Z,64.25
2023-02-14T13:02:08.191Z,62.00
2023-02-14T13:04:49.590Z,59.92
2023-02-14T13:07:29.828Z,63.75
2023-02-14T13:10:05.923Z,59.72
2023-02-14T13:12:39.644Z,61.40
2023-02-14T13:15:19.799Z,54.63
2023-02-14T13:17:52.874Z,65.53
2023-02-14T13:20:43.874Z,57.95
2023-02-14T13:23:18.999Z,59.55
2023-02-14T13:25:50.636Z,62.15
2023-02-14T13:28:20.114Z,59.13
2023-02-14T13:30:48.131Z,70.22
2023-02-14T13:33:27.898Z,69.03
2023-02-14T13:35:59.358Z,64.70
2023-02-14T13:38:31.705Z,64.20
2023-02-14T13:43:52.829Z,55.72
2023-02-14T13:46:49.414Z,53.72
2023-02-14T13:49:41.451Z,63.85
2023-02-14T13:52:11.273Z,64.53
2023-02-14T13:54:47.022Z,65.18
2023-02-14T13:57:31.525Z,64.75
2023-02-14T14:00:37.634Z,60.45
2023-02-14T14:03:06.629Z,72.00
2023-02-14T14:06:05.496Z,70.35
2023-02-14T14:08:48.316Z,63.17
2023-02-14T14:12:02.019Z,72.25
2023-02-14T14:14:39.852Z,64.85
2023-02-14T14:17:27.674Z,58.55
2023-02-14T14:19:57.834Z,65.75
2023-02-14T14:22:27.014Z,65.15
2023-02-14T14:25:05.234Z,70.95
2023-02-14T14:27:37.576Z,70.03
2023-02-14T14:30:16.964Z,84.35
2023-02-14T14:32:45.833Z,86.35
2023-02-14T14:35:21.070Z,104.93
2023-02-14T14:37:51.067Z,97.93
2023-02-14T14:40:28.952Z,95.22
2023-02-14T14:43:01.720Z,98.57
2023-02-14T14:45:35.125Z,103.60
2023-02-14T14:48:11.291Z,112.05
2023-02-14T14:50:42.576Z,126.63
2023-02-14T14:53:22.458Z,109.80
2023-02-14T14:55:52.180Z,118.28
2023-02-14T14:58:41.172Z,119.00
2023-02-14T15:01:21.296Z,126.45
2023-02-14T15:03:49.997Z,117.90
2023-02-14T15:06:20.048Z,123.63
2023-02-14T15:08:49.591Z,131.30
2023-02-14T15:11:35.608Z,141.50
2023-02-14T15:14:05.759Z,139.25
2023-02-14T15:16:41.918Z,137.43
2023-02-14T15:19:13.494Z,124.68
2023-02-14T15:21:44.929Z,132.32
2023-02-14T15:24:15.924Z,89.47
2023-02-14T15:26:48.165Z,137.95
2023-02-14T15:29:24.478Z,138.02
2023-02-14T15:31:57.355Z,127.93
2023-02-14T15:34:28.754Z,140.95
2023-02-14T15:37:03.544Z,135.98
2023-02-14T15:39:36.739Z,135.32
2023-02-14T15:42:05.979Z,147.73
2023-02-14T15:44:34.375Z,134.45
2023-02-14T15:47:06.772Z,135.63
2023-02-14T15:49:37.763Z,138.30
2023-02-14T15:52:07.882Z,146.48
2023-02-14T15:54:39.794Z,129.32
2023-02-14T15:57:18.281Z,142.90
2023-02-14T15:59:49.487Z,151.68
2023-02-14T16:02:30.983Z,147.75
2023-02-14T16:05:05.884Z,127.75
2023-02-14T16:07:35.330Z,128.68
2023-02-14T16:10:32.149Z,134.70
2023-02-14T16:13:03.425Z,134.85
2023-02-14T16:15:33.534Z,127.47
2023-02-14T16:18:08.196Z,125.13
2023-02-14T16:20:46.919Z,130.48
2023-02-14T16:23:26.384Z,140.27
2023-02-14T16:25:58.001Z,128.23
2023-02-14T16:28:30.431Z,109.10
2023-02-14T16:31:01.000Z,122.07
2023-02-14T16:33:33.425Z,120.97
2023-02-14T16:36:06.488Z,134.38
2023-02-14T16:38:36.745Z,121.88
2023-02-14T16:41:05.724Z,130.60
2023-02-14T16:43:34.576Z,137.02
2023-02-14T16:46:02.524Z,127.55
2023-02-14T16:48:31.980Z,126.32
2023-02-14T16:51:00.120Z,137.73
2023-02-14T16:53:30.151Z,129.60
2023-02-14T16:55:58.766Z,131.52
2023-02-14T16:58:30.540Z,135.90
2023-02-14T17:00:59.812Z,91.60
2023-02-14T17:03:28.301Z,127.78
2023-02-14T17:05:58.868Z,117.55
2023-02-14T17:08:27.705Z,139.05
2023-02-14T17:10:57.737Z,121.43
2023-02-14T17:13:28.245Z,131.27
2023-02-14T17:15:57.674Z,129.43
2023-02-14T17:18:26.522Z,124.25
2023-02-14T17:20:55.273Z,131.88
2023-02-14T17:23:24.773Z,138.48
2023-02-14T17:25:55.712Z,135.65
2023-02-14T17:28:25.501Z,139.98
2023-02-14T17:30:53.731Z,146.05
2023-02-14T17:33:22.866Z,140.75
2023-02-14T17:35:51.122Z,125.50
2023-02-14T17:38:24.509Z,149.90
2023-02-14T17:40:54.007Z,144.35
2023-02-14T17:43:22.162Z,139.10
2023-02-14T17:45:50.169Z,145.75
2023-02-14T17:48:20.615Z,149.70
2023-02-14T17:50:49.712Z,148.00
2023-02-14T17:53:18.898Z,153.50
2023-02-14T17:55:47.022Z,166.10
2023-02-14T17:58:16.587Z,180.00
2023-02-14T18:00:44.677Z,170.18
2023-02-14T18:03:12.973Z,152.93
2023-02-14T18:05:41.147Z,167.65
2023-02-14T18:08:11.037Z,160.02
2023-02-14T18:10:39.191Z,162.75
2023-02-14T18:13:07.187Z,156.25
2023-02-14T18:15:36.597Z,180.25
2023-02-14T18:18:04.860Z,161.80
2023-02-14T18:20:33.065Z,155.05
2023-02-14T18:23:02.631Z,167.82
2023-02-14T18:25:33.425Z,161.45
2023-02-14T18:28:01.377Z,145.45
2023-02-14T18:30:29.622Z,154.52
2023-02-14T18:32:59.159Z,129.50
2023-02-14T18:35:27.206Z,156.25
2023-02-14T18:37:55.273Z,149.25
2023-02-14T18:40:23.249Z,138.43
2023-02-14T18:42:51.359Z,147.55
2023-02-14T18:45:21.140Z,135.70
2023-02-14T18:47:49.146Z,116.13
2023-02-14T18:50:18.981Z,138.88
2023-02-14T18:52:47.147Z,129.85
2023-02-14T18:55:16.992Z,120.78
2023-02-14T18:57:45.542Z,118.90
2023-02-14T19:00:16.144Z,137.23
2023-02-14T19:02:47.458Z,140.20
2023-02-14T19:05:16.605Z,126.65
2023-02-14T19:07:46.893Z,135.13
2023-02-14T19:10:16.873Z,130.93
2023-02-14T19:12:45.982Z,108.88
2023-02-14T19:15:14.818Z,116.65
2023-02-14T19:17:43.314Z,129.55
2023-02-14T19:20:12.944Z,128.52
2023-02-14T19:22:42.475Z,133.77
2023-02-14T19:25:12.243Z,114.47
2023-02-14T19:27:40.861Z,124.82
2023-02-14T19:30:13.614Z,112.78
2023-02-14T19:32:44.668Z,105.22
2023-02-14T19:35:15.855Z,123.13
2023-02-14T19:37:44.481Z,121.00
2023-02-14T19:40:15.484Z,105.80
2023-02-14T19:42:51.379Z,134.48
2023-02-14T19:45:20.597Z,131.00
2023-02-14T19:47:51.188Z,130.63
2023-02-14T19:50:22.176Z,133.25
2023-02-14T19:52:54.103Z,115.90
2023-02-14T19:55:27.927Z,120.22
2023-02-14T19:58:00.898Z,109.53
2023-02-14T20:00:29.680Z,116.88
2023-02-14T20:03:02.110Z,111.90
2023-02-14T20:08:07.773Z,117.35
2023-02-14T20:10:40.540Z,113.53
2023-02-14T20:13:28.577Z,115.78
2023-02-14T20:16:04.003Z,122.05
2023-02-14T20:18:40.291Z,105.88
2023-02-14T20:21:28.702Z,107.50
2023-02-14T20:24:07.602Z,125.53
2023-02-14T20:26:45.941Z,116.07
2023-02-14T20:29:19.145Z,115.38
2023-02-14T20:32:00.059Z,149.27
2023-02-14T20:34:31.744Z,110.30
2023-02-14T20:37:11.237Z,116.43
2023-02-14T20:39:46.762Z,127.13
2023-02-14T20:42:18.906Z,121.38
2023-02-14T20:44:58.078Z,106.78
2023-02-14T20:47:36.968Z,118.07
2023-02-14T20:50:15.452Z,105.95
2023-02-14T20:53:09.694Z,125.60
2023-02-14T20:55:51.740Z,138.93
2023-02-14T20:58:41.341Z,130.73
2023-02-14T21:01:18.063Z,118.68
2023-02-14T21:03:57.241Z,126.78
2023-02-14T21:06:32.661Z,127.75
2023-02-14T21:09:13.815Z,126.70
2023-02-14T21:12:10.919Z,106.30
2023-02-14T21:15:12.449Z,126.15
2023-02-14T21:17:56.851Z,126.05
2023-02-14T21:20:37.371Z,138.82
2023-02-14T21:23:09.199Z,103.20
2023-02-14T21:25:44.419Z,133.45
2023-02-14T21:28:15.477Z,122.43
2023-02-14T21:30:50.864Z,128.90
2023-02-14T21:33:34.461Z,122.28
2023-02-14T21:36:32.975Z,129.00
2023-02-14T21:39:07.995Z,144.73
2023-02-14T21:41:53.583Z,122.57
2023-02-14T21:44:57.220Z,158.90
2023-02-14T21:47:43.413Z,137.73
2023-02-14T21:50:41.865Z,152.65
2023-02-14T21:53:30.129Z,121.25
2023-02-14T21:56:06.836Z,131.23
2023-02-14T21:58:49.170Z,103.88
2023-02-14T22:01:38.304Z,116.97
2023-02-14T22:04:15.170Z,119.63
2023-02-14T22:06:57.572Z,136.05
2023-02-14T22:09:28.031Z,136.32
2023-02-14T22:12:10.558Z,152.63
2023-02-14T22:15:04.893Z,131.70
2023-02-14T22:17:37.159Z,130.25
2023-02-14T22:20:19.093Z,158.65
2023-02-14T22:22:52.506Z,129.90
2023-02-14T22:25:30.175Z,120.90
2023-02-14T22:28:11.436Z,119.53
2023-02-14T22:30:46.401Z,90.80
2023-02-14T22:33:18.094Z,128.05
2023-02-14T22:36:02.390Z,154.52
2023-02-14T22:38:35.571Z,111.53
2023-02-14T22:41:18.630Z,127.30
2023-02-14T22:43:47.725Z,96.63
2023-02-14T22:46:19.774Z,128.13
2023-02-14T22:48:55.145Z,101.57
2023-02-14T22:51:33.009Z,127.18
2023-02-14T22:54:06.056Z,109.03
2023-02-14T22:56:43.120Z,97.68
2023-02-14T22:59:19.482Z,144.90
2023-02-14T23:01:53.922Z,135.60
2023-02-14T23:04:32.930Z,125.97
2023-02-14T23:07:07.803Z,142.57
2023-02-14T23:09:36.801Z,100.75
2023-02-14T23:12:28.558Z,118.60
2023-02-14T23:15:19.130Z,125.60
2023-02-14T23:18:24.889Z,122.82
2023-02-14T23:21:13.603Z,108.40
2023-02-14T23:23:45.226Z,124.97
2023-02-14T23:26:15.957Z,75.25
2023-02-14T23:28:44.977Z,114.57
2023-02-14T23:31:20.615Z,137.60
2023-02-14T23:33:53.119Z,106.32
2023-02-14T23:36:33.423Z,106.78
2023-02-14T23:39:03.066Z,96.70
2023-02-14T23:41:49.145Z,106.75
2023-02-14T23:44:19.161Z,119.40
2023-02-14T23:46:48.412Z,101.20
2023-02-14T23:49:18.121Z,127.30
2023-02-14T23:51:47.818Z,119.13
2023-02-14T23:54:18.270Z,123.50
2023-02-14T23:56:46.616Z,110.53
2023-02-14T23:59:15.985Z,141.50
